createdAt,value
2022-11-09T04:20:01.892Z,100.00
2022-11-09T04:23:13.892Z,100.00
2022-11-09T04:26:23.486Z,100.00
2022-11-09T04:29:33.467Z,100.00
2022-11-09T04:32:43.073Z,100.00
2022-11-09T04:35:53.975Z,100.00
2022-11-09T04:39:03.596Z,100.00
2022-11-09T04:42:13.215Z,100.00
2022-11-09T04:45:23.441Z,100.00
2022-11-09T04:48:33.630Z,100.00
2022-11-09T04:51:44.596Z,100.00
2022-11-09T04:54:54.204Z,100.00
2022-11-09T04:58:04.083Z,100.00
2022-11-09T05:01:15.174Z,100.00
2022-11-09T05:04:24.791Z,100.00
2022-11-09T05:07:35.678Z,100.00
2022-11-09T05:10:45.502Z,100.00
2022-11-09T05:13:55.127Z,100.00
2022-11-09T05:17:05.086Z,100.00
2022-11-09T05:20:14.898Z,100.00
2022-11-09T05:23:36.895Z,100.00
2022-11-09T05:26:46.552Z,100.00
2022-11-09T05:29:56.130Z,100.00
2022-11-09T05:33:06.180Z,100.00
2022-11-09T05:36:15.774Z,100.00
2022-11-09T05:39:26.642Z,100.00
2022-11-09T05:42:39.251Z,100.00
2022-11-09T05:45:48.869Z,100.00
2022-11-09T05:48:58.461Z,100.00
2022-11-09T05:52:08.049Z,100.00
2022-11-09T05:55:19.173Z,100.00
2022-11-09T05:58:28.798Z,100.00
2022-11-09T07:44:19.139Z,100.00
2022-11-09T07:47:29.946Z,100.00
2022-11-09T07:50:41.086Z,100.00
2022-11-09T07:53:50.695Z,100.00
2022-11-09T07:57:00.476Z,100.00
2022-11-09T08:00:12.593Z,100.00
2022-11-09T08:03:25.512Z,100.00
2022-11-09T08:06:35.433Z,100.00
2022-11-09T08:09:45.195Z,100.00
2022-11-09T08:12:56.475Z,100.00
2022-11-09T08:16:07.835Z,100.00
2022-11-09T08:19:17.638Z,100.00
2022-11-09T08:22:27.242Z,100.00
2022-11-09T08:25:37.283Z,100.00
2022-11-09T08:28:46.875Z,100.00
2022-11-09T08:31:57.744Z,100.00
2022-11-09T08:35:10.103Z,100.00
2022-11-09T08:38:20.216Z,100.00
2022-11-09T08:41:30.076Z,100.00
2022-11-09T08:44:39.672Z,100.00
2022-11-09T08:47:58.422Z,100.00
2022-11-09T08:51:08.340Z,100.00
2022-11-09T08:54:18.117Z,100.00
2022-11-09T08:57:27.756Z,100.00
2022-11-09T09:00:37.371Z,100.00
2022-11-09T09:03:48.386Z,100.00
2022-11-09T09:07:00.201Z,100.00
2022-11-09T09:10:10.336Z,100.00
2022-11-09T09:13:22.614Z,100.00
2022-11-09T09:16:32.652Z,100.00
2022-11-09T09:19:48.823Z,100.00
2022-11-09T09:23:00.162Z,100.00
2022-11-09T09:26:09.802Z,100.00
2022-11-09T09:29:19.520Z,100.00
2022-11-09T09:32:30.039Z,100.00
2022-11-09T09:35:40.929Z,100.00
2022-11-09T09:38:51.458Z,100.00
2022-11-09T09:42:05.449Z,100.00
2022-11-09T09:45:19.641Z,100.00
2022-11-09T09:48:37.781Z,99.83
2022-11-09T09:51:55.091Z,100.00
2022-11-09T09:55:14.052Z,97.28
2022-11-09T09:58:27.244Z,96.62
2022-11-09T10:01:39.678Z,95.28
2022-11-09T10:04:49.954Z,95.01
2022-11-09T10:08:13.598Z,94.50
2022-11-09T10:11:36.653Z,93.67
2022-11-09T10:14:59.060Z,95.37
2022-11-09T10:18:26.434Z,94.08
2022-11-09T10:21:47.063Z,91.71
2022-11-09T10:25:32.259Z,91.29
2022-11-09T10:29:09.151Z,89.30
2022-11-09T10:32:14.736Z,89.36
2022-11-09T10:35:30.465Z,89.92
2022-11-09T10:38:45.046Z,89.58
2022-11-09T10:42:16.529Z,87.13
2022-11-09T10:45:40.205Z,86.54
2022-11-09T10:49:20.547Z,88.42
2022-11-09T10:52:47.274Z,89.41
2022-11-09T10:56:20.263Z,88.90
2022-11-09T10:59:51.587Z,92.02
2022-11-09T11:03:17.899Z,89.56
2022-11-09T11:06:39.832Z,90.28
2022-11-09T11:10:10.939Z,89.39
2022-11-09T11:13:32.837Z,89.80
2022-11-09T11:16:56.232Z,87.66
2022-11-09T11:20:27.647Z,88.65
2022-11-09T11:24:12.433Z,88.07
2022-11-09T11:27:43.968Z,87.77
2022-11-09T11:31:12.403Z,86.45
2022-11-09T11:35:01.517Z,84.54
2022-11-09T11:38:31.263Z,84.14
2022-11-09T11:42:05.549Z,84.16
2022-11-09T11:45:41.638Z,83.41
2022-11-09T11:49:24.293Z,82.91
2022-11-09T11:53:07.460Z,82.16
2022-11-09T11:56:35.405Z,80.36
2022-11-09T12:00:05.382Z,80.83
2022-11-09T12:03:40.796Z,80.88
2022-11-09T12:07:14.010Z,80.80
2022-11-09T12:10:51.119Z,80.28
2022-11-09T12:14:24.579Z,80.95
2022-11-09T12:17:58.899Z,78.41
2022-11-09T12:21:29.648Z,79.46
2022-11-09T12:24:58.961Z,78.95
2022-11-09T12:28:40.719Z,78.41
2022-11-09T12:32:13.813Z,79.05
2022-11-09T12:35:41.804Z,79.36
2022-11-09T12:39:11.242Z,80.04
2022-11-09T12:42:37.675Z,79.84
2022-11-09T12:46:05.236Z,81.86
2022-11-09T12:49:36.632Z,82.78
2022-11-09T12:52:59.435Z,82.50
2022-11-09T12:56:24.961Z,82.55
2022-11-09T12:59:53.720Z,83.02
2022-11-09T13:03:23.462Z,84.57
2022-11-09T13:07:17.756Z,84.71
2022-11-09T13:10:41.041Z,87.45
2022-11-09T13:14:27.352Z,87.85
2022-11-09T13:17:57.246Z,91.13
2022-11-09T13:21:37.388Z,92.82
2022-11-09T13:25:01.031Z,95.92
2022-11-09T13:28:41.678Z,99.91
2022-11-09T13:32:23.452Z,100.00
2022-11-09T13:36:00.094Z,100.00
2022-11-09T13:39:33.590Z,100.00
2022-11-09T13:42:59.077Z,100.00
2022-11-09T13:46:27.257Z,100.00
2022-11-09T13:49:50.839Z,100.00
2022-11-09T13:53:28.456Z,100.00
2022-11-09T13:56:51.517Z,100.00
2022-11-09T14:00:19.616Z,100.00
2022-11-09T14:03:41.322Z,100.00
2022-11-09T14:07:05.487Z,100.00
2022-11-09T14:10:43.278Z,100.00
2022-11-09T14:14:19.970Z,100.00
2022-11-09T14:17:52.547Z,100.00
2022-11-09T14:21:24.177Z,100.00
2022-11-09T14:24:46.456Z,100.00
2022-11-09T14:28:24.340Z,100.00
2022-11-09T14:31:47.357Z,100.00
2022-11-09T14:35:19.843Z,100.00
2022-11-09T14:38:46.738Z,100.00
2022-11-09T14:42:18.573Z,100.00
2022-11-09T14:45:50.443Z,100.00
2022-11-09T14:49:14.834Z,100.00
2022-11-09T14:52:36.928Z,100.00
2022-11-09T14:56:03.210Z,100.00
2022-11-09T14:59:32.003Z,100.00
2022-11-09T15:02:53.746Z,100.00
2022-11-09T15:06:18.843Z,100.00
2022-11-09T15:09:45.633Z,100.00
2022-11-09T15:13:07.520Z,100.00
2022-11-09T15:16:31.907Z,100.00
2022-11-09T15:19:55.832Z,100.00
2022-11-09T15:23:38.893Z,100.00
2022-11-09T15:27:00.528Z,100.00
2022-11-09T15:30:31.485Z,100.00
2022-11-09T15:33:55.928Z,100.00
2022-11-09T15:37:22.144Z,100.00
2022-11-09T15:40:45.124Z,100.00
2022-11-09T15:44:07.716Z,100.00
2022-11-09T15:47:34.776Z,100.00
2022-11-09T15:50:56.674Z,100.00
2022-11-09T15:54:19.093Z,100.00
2022-11-09T15:57:44.558Z,100.00
2022-11-09T16:01:06.429Z,100.00
2022-11-09T16:04:28.058Z,100.00
2022-11-09T16:07:51.292Z,100.00
2022-11-09T16:11:13.389Z,100.00
2022-11-09T16:14:36.468Z,100.00
2022-11-09T16:17:58.094Z,100.00
2022-11-09T16:21:19.780Z,100.00
2022-11-09T16:24:41.425Z,100.00
2022-11-09T16:28:03.018Z,100.00
2022-11-09T16:31:48.264Z,100.00
2022-11-09T16:35:26.139Z,100.00
2022-11-09T16:38:53.799Z,100.00
2022-11-09T16:42:16.838Z,100.00
2022-11-09T16:45:38.572Z,100.00
2022-11-09T16:49:02.983Z,100.00
2022-11-09T16:52:26.107Z,100.00
2022-11-09T16:55:48.142Z,100.00
2022-11-09T16:59:09.852Z,100.00
2022-11-09T17:02:31.540Z,100.00
2022-11-09T17:05:54.468Z,100.00
2022-11-09T17:09:16.609Z,100.00
2022-11-09T17:12:38.381Z,100.00
2022-11-09T17:16:05.362Z,100.00
2022-11-09T17:19:32.859Z,100.00
2022-11-09T17:22:55.940Z,100.00
2022-11-09T17:26:18.727Z,100.00
2022-11-09T17:29:43.493Z,100.00
2022-11-09T17:33:05.166Z,100.00
2022-11-09T17:36:56.851Z,100.00
2022-11-09T17:40:10.335Z,100.00
2022-11-09T17:43:33.449Z,100.00
2022-11-09T17:46:55.994Z,100.00
2022-11-09T17:50:21.516Z,100.00
2022-11-09T17:53:44.485Z,100.00
2022-11-09T17:57:09.752Z,100.00
2022-11-09T18:00:32.991Z,100.00
2022-11-09T18:03:56.825Z,100.00
2022-11-09T18:07:20.171Z,100.00
2022-11-09T18:10:45.773Z,100.00
2022-11-09T18:14:11.600Z,100.00
2022-11-09T18:17:35.012Z,100.00
2022-11-09T18:20:58.162Z,100.00
2022-11-09T18:24:21.440Z,100.00
2022-11-09T18:27:44.955Z,100.00
2022-11-09T18:31:14.340Z,100.00
2022-11-09T18:34:37.643Z,100.00
2022-11-09T18:38:00.970Z,100.00
2022-11-09T18:41:25.601Z,100.00
2022-11-09T18:44:49.014Z,100.00
2022-11-09T18:48:14.011Z,100.00
2022-11-09T18:51:37.408Z,100.00
2022-11-09T18:55:00.996Z,100.00
2022-11-09T18:58:24.430Z,100.00
2022-11-09T19:01:49.417Z,100.00
2022-11-09T19:05:18.764Z,100.00
2022-11-09T19:08:52.904Z,100.00
2022-11-09T19:12:16.834Z,100.00
2022-11-09T19:15:45.764Z,100.00
2022-11-09T19:19:14.765Z,100.00
2022-11-09T19:22:40.035Z,100.00
2022-11-09T19:26:05.053Z,100.00
2022-11-09T19:29:29.789Z,100.00
2022-11-09T19:32:53.970Z,100.00
2022-11-09T19:36:31.019Z,100.00
2022-11-09T19:39:56.502Z,100.00
2022-11-09T19:43:23.291Z,100.00
2022-11-09T19:46:48.601Z,100.00
2022-11-09T19:50:13.492Z,100.00
2022-11-09T19:53:42.204Z,100.00
2022-11-09T19:57:09.377Z,100.00
2022-11-09T20:00:32.892Z,100.00
2022-11-09T20:04:00.144Z,100.00
2022-11-09T20:07:23.799Z,100.00
2022-11-09T20:10:47.193Z,100.00
2022-11-09T20:14:12.776Z,100.00
2022-11-09T20:17:36.154Z,100.00
2022-11-09T20:20:59.760Z,100.00
2022-11-09T20:24:23.066Z,100.00
2022-11-09T20:27:46.460Z,100.00
2022-11-09T20:31:12.416Z,100.00
2022-11-09T20:34:35.638Z,100.00
2022-11-09T20:37:59.124Z,100.00
2022-11-09T20:41:25.427Z,100.00
2022-11-09T20:59:21.838Z,100.00
2022-11-09T21:02:45.147Z,100.00
